Time;durP1;ratioP1;P1;durP2;ratioP2;P2;SDS_P1;SDS_P2;PMS_P1;PMS_P2;Temp;Humidity;BMP_temperature;BMP_pressure;BME280_temperature;BME280_humidity;BME280_pressure;Samples;Min_cycle;Max_cycle;Signal;HPM_P1;HPM_P2
2022/12/19 00:00:06;;;;;;;31.58;22.60;;;-8.40;62.00;;;;;;4722856;29;115552;-82
2022/12/19 00:02:41;;;;;;;39.85;15.13;;;-8.40;62.10;;;;;;4724629;29;114471;-82
2022/12/19 00:05:09;;;;;;;26.80;23.95;;;-8.30;62.20;;;;;;4739975;29;115117;-81
2022/12/19 00:07:36;;;;;;;38.15;21.55;;;-8.20;62.30;;;;;;4738122;29;114769;-82
2022/12/19 00:10:05;;;;;;;23.65;17.23;;;-8.30;62.30;;;;;;4754275;29;116489;-81
2022/12/19 00:12:32;;;;;;;25.08;8.07;;;-8.20;62.50;;;;;;4739734;29;114476;-82
2022/12/19 00:15:00;;;;;;;51.83;26.98;;;-8.10;62.60;;;;;;4738110;29;115489;-81
2022/12/19 00:17:28;;;;;;;31.20;23.85;;;-8.10;62.70;;;;;;4737302;29;115079;-81
2022/12/19 00:19:55;;;;;;;19.63;12.57;;;-8.10;62.60;;;;;;4749913;29;114781;-82
2022/12/19 00:22:22;;;;;;;58.97;33.63;;;-8.10;62.40;;;;;;4752256;29;117952;-81
2022/12/19 00:24:49;;;;;;;39.60;31.05;;;-8.00;62.50;;;;;;4720310;29;115168;-82
2022/12/19 00:27:16;;;;;;;33.83;18.75;;;-8.10;62.50;;;;;;4739212;29;115084;-82
2022/12/19 00:29:46;;;;;;;31.77;27.40;;;-8.00;62.30;;;;;;4740015;29;114453;-81
2022/12/19 00:32:14;;;;;;;32.25;21.25;;;-8.10;62.30;;;;;;4739736;29;114481;-81
2022/12/19 00:34:42;;;;;;;43.22;23.67;;;-8.10;62.20;;;;;;4738951;29;115110;-81
2022/12/19 00:37:10;;;;;;;31.92;13.68;;;-8.10;62.20;;;;;;4737180;29;115100;-81
2022/12/19 00:39:40;;;;;;;27.67;23.40;;;-8.10;62.10;;;;;;4724255;29;114481;-81
2022/12/19 00:42:08;;;;;;;26.15;18.13;;;-8.20;62.00;;;;;;4738595;29;114433;-81
2022/12/19 00:44:35;;;;;;;19.15;13.18;;;-8.20;62.10;;;;;;4736130;29;115261;-81
2022/12/19 00:47:02;;;;;;;24.10;19.98;;;-8.10;62.20;;;;;;4739259;29;115311;-81
2022/12/19 00:49:30;;;;;;;26.25;19.80;;;-8.10;62.20;;;;;;4738729;29;114623;-82
2022/12/19 00:51:58;;;;;;;34.33;23.55;;;-8.20;62.30;;;;;;4739085;29;114786;-81
2022/12/19 00:54:26;;;;;;;7.78;5.35;;;-8.10;62.40;;;;;;4739162;29;115226;-82
2022/12/19 00:56:53;;;;;;;32.75;9.23;;;-8.10;62.50;;;;;;4739282;29;114632;-82
2022/12/19 00:59:22;;;;;;;24.65;12.13;;;-8.10;62.60;;;;;;4739873;29;114409;-82
2022/12/19 01:01:55;;;;;;;43.58;18.60;;;-8.10;62.70;;;;;;4725613;29;114767;-82
2022/12/19 01:04:23;;;;;;;17.50;10.15;;;-8.10;62.90;;;;;;4752559;29;115454;-83
2022/12/19 01:06:56;;;;;;;11.43;5.82;;;-8.10;63.00;;;;;;4751192;29;115621;-82
2022/12/19 01:09:32;;;;;;;6.88;4.90;;;-8.00;63.20;;;;;;4735809;29;114527;-82
2022/12/19 01:14:54;;;;;;;29.60;19.35;;;-7.90;63.40;;;;;;4709140;29;115548;-82
2022/12/19 01:17:33;;;;;;;15.20;7.93;;;-7.80;63.40;;;;;;4737947;29;114708;-81
2022/12/19 01:20:13;;;;;;;18.30;7.70;;;-7.80;63.50;;;;;;4737123;29;114687;-81
2022/12/19 01:22:41;;;;;;;27.52;15.98;;;-7.70;63.50;;;;;;4737419;29;114716;-80
2022/12/19 01:25:08;;;;;;;16.38;8.15;;;-7.70;63.50;;;;;;4736643;29;115621;-81
2022/12/19 01:27:38;;;;;;;33.78;8.38;;;-7.60;63.50;;;;;;4752570;29;114961;-81
2022/12/19 01:30:06;;;;;;;31.75;11.98;;;-7.50;63.60;;;;;;4751892;29;114480;-81
2022/12/19 01:32:35;;;;;;;41.47;16.08;;;-7.50;63.70;;;;;;4723072;29;114589;-81
2022/12/19 01:35:02;;;;;;;18.10;11.52;;;-7.40;63.70;;;;;;4750717;29;115116;-81
2022/12/19 01:37:30;;;;;;;27.27;20.30;;;-7.30;63.70;;;;;;4751634;29;118990;-82
2022/12/19 01:39:57;;;;;;;29.27;12.30;;;-7.30;63.60;;;;;;4737379;29;115184;-82
2022/12/19 01:42:24;;;;;;;9.38;5.15;;;-7.30;63.60;;;;;;4722148;29;114692;-82
2022/12/19 01:45:22;;;;;;;12.23;6.20;;;-7.30;63.40;;;;;;4750924;29;115178;-82
2022/12/19 01:48:34;;;;;;;8.55;5.05;;;-7.20;63.60;;;;;;4723812;29;114747;-81
2022/12/19 01:51:20;;;;;;;6.15;3.13;;;-7.20;63.70;;;;;;4734496;29;114533;-82
2022/12/19 01:53:53;;;;;;;8.98;4.15;;;-7.10;64.00;;;;;;4737047;29;114674;-81
2022/12/19 01:56:27;;;;;;;15.68;6.57;;;-6.90;64.10;;;;;;4736404;29;115304;-82
2022/12/19 01:58:57;;;;;;;11.07;4.85;;;-6.80;64.20;;;;;;4736248;29;117699;-83
2022/12/19 02:01:36;;;;;;;9.30;4.20;;;-6.70;64.20;;;;;;4737277;29;114781;-81
2022/12/19 02:04:21;;;;;;;5.20;2.97;;;-6.60;64.20;;;;;;4725136;29;117074;-81
2022/12/19 02:06:48;;;;;;;27.00;11.00;;;-6.40;64.20;;;;;;4721799;29;115190;-81
2022/12/19 02:09:15;;;;;;;9.70;4.72;;;-6.30;64.20;;;;;;4720596;29;114765;-81
2022/12/19 02:11:45;;;;;;;11.75;5.65;;;-6.20;64.30;;;;;;4737200;29;115555;-81
2022/12/19 02:14:13;;;;;;;6.20;2.33;;;-6.10;64.30;;;;;;4752249;29;114593;-80
2022/12/19 02:17:18;;;;;;;12.43;6.50;;;-6.10;64.30;;;;;;4721796;29;115275;-81
2022/12/19 02:20:21;;;;;;;9.15;4.50;;;-6.00;64.30;;;;;;4735404;29;114717;-81
2022/12/19 02:23:31;;;;;;;9.73;4.22;;;-5.90;64.20;;;;;;4725337;29;115606;-81
2022/12/19 02:26:40;;;;;;;18.92;7.38;;;-5.80;64.10;;;;;;4738192;29;114820;-81
2022/12/19 02:30:00;;;;;;;13.18;4.28;;;-5.70;64.10;;;;;;4722832;29;116321;-81
2022/12/19 02:32:59;;;;;;;14.30;5.35;;;-5.70;63.90;;;;;;4738624;29;114835;-81
2022/12/19 02:35:55;;;;;;;12.30;5.65;;;-5.70;63.90;;;;;;4721585;29;114942;-81
2022/12/19 02:38:29;;;;;;;5.93;4.03;;;-5.60;64.10;;;;;;4739971;29;114681;-81
2022/12/19 02:41:06;;;;;;;17.23;6.95;;;-5.60;64.20;;;;;;4738440;29;115330;-81
2022/12/19 02:43:38;;;;;;;15.40;7.82;;;-5.50;64.20;;;;;;4752729;29;114862;-81
2022/12/19 02:46:07;;;;;;;30.73;11.63;;;-5.50;64.20;;;;;;4711355;29;116460;-81
2022/12/19 02:48:35;;;;;;;25.67;11.52;;;-5.40;64.30;;;;;;4712781;29;114982;-81
2022/12/19 02:51:03;;;;;;;19.52;9.15;;;-5.40;64.40;;;;;;4709776;29;115224;-82
2022/12/19 02:53:31;;;;;;;18.48;7.55;;;-5.40;64.40;;;;;;4739209;29;114892;-82
2022/12/19 02:56:23;;;;;;;21.52;8.77;;;-5.30;64.50;;;;;;4724714;29;114675;-82
2022/12/19 02:59:07;;;;;;;13.90;6.78;;;-5.20;64.50;;;;;;4739465;29;114808;-82
2022/12/19 03:01:50;;;;;;;27.58;9.35;;;-5.20;64.30;;;;;;4724767;29;115353;-82
2022/12/19 03:04:36;;;;;;;22.23;9.82;;;-5.10;64.20;;;;;;4752850;29;114769;-82
2022/12/19 03:07:36;;;;;;;25.38;11.00;;;-5.20;64.30;;;;;;4754728;29;115609;-82
2022/12/19 03:10:16;;;;;;;10.85;6.07;;;-5.20;64.40;;;;;;4713107;29;114530;-81
2022/12/19 03:13:10;;;;;;;29.73;11.60;;;-5.10;64.40;;;;;;4739182;29;115523;-81
2022/12/19 03:15:38;;;;;;;27.40;11.48;;;-5.10;64.30;;;;;;4737544;29;115796;-81
2022/12/19 03:18:06;;;;;;;26.65;9.98;;;-5.10;64.40;;;;;;4727564;29;115163;-82
2022/12/19 03:21:08;;;;;;;22.75;9.15;;;-5.10;64.40;;;;;;4736880;29;115155;-82
2022/12/19 03:23:35;;;;;;;28.65;11.32;;;-5.10;64.40;;;;;;4725482;29;117320;-81
2022/12/19 03:26:31;;;;;;;30.77;13.02;;;-5.10;64.40;;;;;;4723356;29;114931;-79
2022/12/19 03:29:11;;;;;;;22.38;9.60;;;-5.10;64.40;;;;;;4724853;29;115084;-82
2022/12/19 03:31:38;;;;;;;26.42;12.15;;;-5.10;64.40;;;;;;4737069;29;114514;-82
2022/12/19 03:34:14;;;;;;;29.05;12.25;;;-5.10;64.50;;;;;;4757600;29;115217;-81
2022/12/19 03:36:47;;;;;;;17.33;9.73;;;-5.00;64.50;;;;;;4710043;29;114747;-82
2022/12/19 03:39:15;;;;;;;14.10;6.70;;;-4.90;64.50;;;;;;4740523;29;114711;-82
2022/12/19 03:44:31;;;;;;;28.42;13.45;;;-4.80;64.50;;;;;;4750530;29;115383;-82
2022/12/19 03:47:49;;;;;;;11.60;5.93;;;-4.80;64.30;;;;;;4727007;29;114792;-82
2022/12/19 03:50:16;;;;;;;19.95;8.98;;;-4.80;64.40;;;;;;4730523;29;114463;-82
2022/12/19 03:53:15;;;;;;;22.08;7.03;;;-4.80;64.30;;;;;;4738999;29;114522;-83
2022/12/19 03:55:57;;;;;;;13.10;5.25;;;-4.80;64.30;;;;;;4745451;29;115365;-83
2022/12/19 03:58:35;;;;;;;16.17;6.53;;;-4.80;64.30;;;;;;4738836;29;114672;-82
2022/12/19 04:01:05;;;;;;;12.00;6.03;;;-4.80;64.30;;;;;;4711523;29;114677;-82
2022/12/19 04:03:34;;;;;;;14.88;6.63;;;-4.80;64.30;;;;;;4742417;29;114677;-81
2022/12/19 04:06:01;;;;;;;11.48;5.75;;;-4.80;64.20;;;;;;4722570;29;115340;-81
2022/12/19 04:08:28;;;;;;;12.27;3.95;;;-4.70;64.30;;;;;;4753177;29;115131;-81
2022/12/19 04:11:08;;;;;;;14.40;5.75;;;-4.70;64.30;;;;;;4724684;29;114656;-82
2022/12/19 04:13:40;;;;;;;9.13;4.60;;;-4.70;64.30;;;;;;4759547;29;114470;-81
2022/12/19 04:16:48;;;;;;;9.88;3.70;;;-4.70;64.30;;;;;;4707190;29;119036;-80
2022/12/19 04:19:22;;;;;;;9.70;4.53;;;-4.60;64.30;;;;;;4726286;29;115791;-80
2022/12/19 04:21:54;;;;;;;12.75;4.90;;;-4.60;64.10;;;;;;4735722;29;114932;-80
2022/12/19 04:24:29;;;;;;;7.07;4.35;;;-4.60;64.00;;;;;;4704726;29;114545;-80
2022/12/19 04:26:56;;;;;;;11.15;4.40;;;-4.50;64.10;;;;;;4709190;29;117358;-80
2022/12/19 04:29:24;;;;;;;9.15;4.57;;;-4.60;64.10;;;;;;4723855;29;115722;-80
2022/12/19 04:31:51;;;;;;;4.78;2.53;;;-4.50;64.10;;;;;;4736795;29;114422;-80
2022/12/19 04:34:19;;;;;;;13.38;4.43;;;-4.60;64.10;;;;;;4719055;29;116376;-81
2022/12/19 04:36:47;;;;;;;13.20;4.55;;;-4.50;64.20;;;;;;4738013;29;115210;-80
2022/12/19 04:39:15;;;;;;;8.70;3.67;;;-4.50;64.20;;;;;;4725713;29;115847;-80
2022/12/19 04:41:42;;;;;;;8.90;3.17;;;-4.50;64.10;;;;;;4733004;29;114474;-80
2022/12/19 04:44:09;;;;;;;4.63;2.63;;;-4.50;64.10;;;;;;4732970;29;114423;-80
2022/12/19 04:46:36;;;;;;;12.80;5.07;;;-4.40;64.10;;;;;;4754878;29;115367;-80
2022/12/19 04:49:04;;;;;;;7.60;3.78;;;-4.40;64.10;;;;;;4735138;29;115538;-81
2022/12/19 04:51:31;;;;;;;19.23;8.15;;;-4.40;64.00;;;;;;4723443;29;114416;-81
2022/12/19 04:53:58;;;;;;;12.65;4.28;;;-4.40;64.10;;;;;;4740843;29;114775;-80
2022/12/19 04:56:25;;;;;;;8.43;3.30;;;-4.30;64.00;;;;;;4735386;29;116551;-80
2022/12/19 04:58:57;;;;;;;6.93;3.25;;;-4.30;64.20;;;;;;4738285;29;114633;-80
2022/12/19 05:01:24;;;;;;;8.43;3.80;;;-4.30;64.20;;;;;;4736570;29;114474;-81
2022/12/19 05:03:52;;;;;;;12.65;5.13;;;-4.30;64.20;;;;;;4738940;29;114490;-81
2022/12/19 05:06:23;;;;;;;10.30;4.18;;;-4.30;64.30;;;;;;4734400;29;115351;-81
2022/12/19 05:08:50;;;;;;;10.77;5.35;;;-4.30;64.20;;;;;;4750138;29;114770;-81
2022/12/19 05:11:18;;;;;;;11.60;3.72;;;-4.30;64.30;;;;;;4737994;29;114876;-81
2022/12/19 05:13:46;;;;;;;4.25;2.00;;;-4.30;64.20;;;;;;4738813;29;114456;-80
2022/12/19 05:16:14;;;;;;;10.75;4.75;;;-4.30;64.30;;;;;;4723241;29;115631;-81
2022/12/19 05:18:42;;;;;;;9.10;4.35;;;-4.30;64.30;;;;;;4738121;29;114660;-80
2022/12/19 05:21:09;;;;;;;11.80;4.68;;;-4.20;64.30;;;;;;4738439;29;114582;-80
2022/12/19 05:23:37;;;;;;;10.57;3.90;;;-4.20;64.30;;;;;;4753425;29;114471;-81
2022/12/19 05:26:06;;;;;;;8.35;4.30;;;-4.20;64.30;;;;;;4708501;29;115086;-80
2022/12/19 05:28:34;;;;;;;9.70;5.38;;;-4.20;64.30;;;;;;4724141;29;116775;-80
2022/12/19 05:31:12;;;;;;;11.18;4.40;;;-4.20;64.30;;;;;;4750425;29;114762;-80
2022/12/19 05:33:40;;;;;;;10.18;4.78;;;-4.20;64.20;;;;;;4723693;29;114527;-80
2022/12/19 05:36:08;;;;;;;11.63;4.28;;;-4.20;64.20;;;;;;4720931;29;115119;-80
2022/12/19 05:38:37;;;;;;;9.75;4.13;;;-4.20;64.20;;;;;;4733874;29;114698;-80
2022/12/19 05:41:27;;;;;;;5.95;2.88;;;-4.20;64.20;;;;;;4719282;29;114672;-80
2022/12/19 05:43:55;;;;;;;9.85;4.35;;;-4.20;64.20;;;;;;4733128;29;114812;-82
2022/12/19 05:46:23;;;;;;;6.03;2.60;;;-4.20;64.30;;;;;;4735812;29;115066;-79
2022/12/19 05:48:50;;;;;;;8.18;3.20;;;-4.30;64.30;;;;;;4718753;29;115218;-82
2022/12/19 05:51:18;;;;;;;11.32;4.38;;;-4.30;64.30;;;;;;4749934;29;114653;-82
2022/12/19 05:53:45;;;;;;;11.48;3.35;;;-4.30;64.30;;;;;;4730299;29;114524;-80
2022/12/19 05:56:15;;;;;;;6.68;3.10;;;-4.30;64.40;;;;;;4734411;29;115296;-80
2022/12/19 05:58:43;;;;;;;4.70;2.50;;;-4.30;64.50;;;;;;4733643;29;114702;-82
2022/12/19 06:01:20;;;;;;;8.02;3.42;;;-4.20;64.50;;;;;;4708201;29;114963;-81
2022/12/19 06:03:48;;;;;;;11.93;3.90;;;-4.20;64.50;;;;;;4737398;29;114828;-81
2022/12/19 06:06:18;;;;;;;9.82;4.05;;;-4.20;64.40;;;;;;4733878;29;115585;-81
2022/12/19 06:08:45;;;;;;;7.03;3.92;;;-4.20;64.40;;;;;;4723605;29;115889;-81
2022/12/19 06:11:12;;;;;;;13.25;4.78;;;-4.20;64.40;;;;;;4720706;29;114920;-81
2022/12/19 06:13:40;;;;;;;14.82;5.05;;;-4.20;64.40;;;;;;4693485;29;114762;-81
2022/12/19 06:16:15;;;;;;;6.80;2.72;;;-4.20;64.40;;;;;;4731852;29;115181;-81
2022/12/19 06:18:43;;;;;;;7.75;4.45;;;-4.20;64.40;;;;;;4749061;29;115736;-82
2022/12/19 06:21:22;;;;;;;7.05;2.60;;;-4.10;64.40;;;;;;4737447;29;114665;-82
2022/12/19 06:23:49;;;;;;;7.68;2.88;;;-4.10;64.40;;;;;;4734227;29;114877;-82
2022/12/19 06:26:18;;;;;;;11.05;4.97;;;-4.20;64.50;;;;;;4735449;29;115184;-82
2022/12/19 06:28:47;;;;;;;7.13;3.85;;;-4.20;64.50;;;;;;4736549;29;115086;-82
2022/12/19 06:31:15;;;;;;;5.43;2.05;;;-4.10;64.50;;;;;;4730513;29;114700;-82
2022/12/19 06:33:42;;;;;;;4.72;3.00;;;-4.20;64.50;;;;;;4729480;29;114427;-82
2022/12/19 06:36:13;;;;;;;10.48;4.40;;;-4.20;64.60;;;;;;4752017;29;115341;-82
2022/12/19 06:38:40;;;;;;;4.68;2.85;;;-4.10;64.60;;;;;;4733281;29;116318;-82
2022/12/19 06:44:04;;;;;;;10.27;4.53;;;-4.10;64.60;;;;;;4735831;29;114618;-81
2022/12/19 06:46:31;;;;;;;4.45;1.83;;;-4.00;64.80;;;;;;4718973;29;116852;-81
2022/12/19 06:48:59;;;;;;;7.57;3.30;;;-4.00;64.60;;;;;;4732627;29;114778;-81
2022/12/19 06:51:26;;;;;;;6.68;2.58;;;-3.90;64.60;;;;;;4719320;29;116699;-81
2022/12/19 06:53:54;;;;;;;7.65;4.65;;;-3.90;64.70;;;;;;4734391;29;114529;-82
2022/12/19 06:56:24;;;;;;;8.50;4.07;;;-3.90;64.50;;;;;;4733481;29;116788;-82
2022/12/19 06:58:51;;;;;;;8.55;4.43;;;-3.80;64.50;;;;;;4734094;29;114691;-81
2022/12/19 07:01:35;;;;;;;12.70;5.03;;;-3.80;64.40;;;;;;4733902;29;114688;-81
2022/12/19 07:04:03;;;;;;;6.55;3.97;;;-3.80;64.40;;;;;;4726477;29;114545;-81
2022/12/19 07:06:30;;;;;;;8.50;4.03;;;-3.80;64.40;;;;;;4754440;29;115964;-81
2022/12/19 07:08:57;;;;;;;10.77;4.60;;;-3.80;64.30;;;;;;4740809;29;114872;-81
2022/12/19 07:11:24;;;;;;;11.32;3.70;;;-3.70;64.00;;;;;;4696223;29;114340;-82
2022/12/19 07:13:52;;;;;;;9.25;4.10;;;-3.70;64.20;;;;;;4725444;29;116507;-81
2022/12/19 07:16:19;;;;;;;12.57;6.38;;;-3.70;64.10;;;;;;4753976;29;115201;-81
2022/12/19 07:18:46;;;;;;;10.48;5.03;;;-3.60;64.10;;;;;;4735078;29;114927;-81
2022/12/19 07:21:13;;;;;;;10.05;4.65;;;-3.60;64.00;;;;;;4737401;29;114826;-81
2022/12/19 07:23:41;;;;;;;6.43;3.55;;;-3.60;64.10;;;;;;4741845;29;114593;-80
2022/12/19 07:26:08;;;;;;;8.30;4.07;;;-3.50;64.00;;;;;;4723568;29;115237;-80
2022/12/19 07:28:36;;;;;;;9.60;3.75;;;-3.40;64.00;;;;;;4740770;29;114873;-80
2022/12/19 07:31:03;;;;;;;13.85;6.07;;;-3.30;63.70;;;;;;4740869;29;114463;-80
2022/12/19 07:33:31;;;;;;;9.52;3.78;;;-3.20;63.70;;;;;;4740914;29;114594;-81
2022/12/19 07:35:58;;;;;;;11.90;5.40;;;-3.10;63.50;;;;;;4739469;29;115220;-81
2022/12/19 07:38:25;;;;;;;11.18;5.57;;;-3.00;63.00;;;;;;4751013;29;114613;-82
2022/12/19 07:40:52;;;;;;;8.68;3.83;;;-3.00;62.90;;;;;;4752987;29;114572;-81
2022/12/19 07:43:19;;;;;;;14.18;5.53;;;-2.90;62.90;;;;;;4753943;29;115394;-80
2022/12/19 07:45:47;;;;;;;15.45;6.20;;;-2.80;63.10;;;;;;4736071;29;115154;-80
2022/12/19 07:48:14;;;;;;;10.45;5.50;;;-2.70;62.80;;;;;;4736170;29;115637;-80
2022/12/19 07:50:42;;;;;;;12.07;5.82;;;-2.70;62.70;;;;;;4740255;29;114677;-81
2022/12/19 07:53:09;;;;;;;14.60;6.70;;;-2.70;62.60;;;;;;4736309;29;114723;-80
2022/12/19 07:55:36;;;;;;;15.90;7.60;;;-2.60;62.10;;;;;;4739466;29;115097;-81
2022/12/19 07:58:03;;;;;;;15.65;6.30;;;-2.50;62.30;;;;;;4722628;29;114832;-81
2022/12/19 08:00:30;;;;;;;14.43;6.35;;;-2.40;62.60;;;;;;4738332;29;114563;-81
2022/12/19 08:02:58;;;;;;;17.92;7.72;;;-2.20;62.40;;;;;;4737891;29;114650;-81
2022/12/19 08:05:26;;;;;;;17.58;7.28;;;-2.10;62.00;;;;;;4739845;29;115109;-81
2022/12/19 08:07:53;;;;;;;14.32;6.10;;;-2.00;62.00;;;;;;4740084;29;114567;-81
2022/12/19 08:10:21;;;;;;;13.80;5.55;;;-1.90;61.70;;;;;;4754666;29;114494;-81
2022/12/19 08:12:49;;;;;;;16.63;6.82;;;-1.90;61.60;;;;;;4736755;29;114776;-81
2022/12/19 08:15:16;;;;;;;15.20;7.07;;;-1.80;61.70;;;;;;4739951;29;115215;-81
2022/12/19 08:17:43;;;;;;;12.77;6.28;;;-1.70;61.30;;;;;;4753622;29;115289;-81
2022/12/19 08:20:11;;;;;;;16.85;6.90;;;-1.60;61.20;;;;;;4738748;29;114826;-82
2022/12/19 08:22:38;;;;;;;18.50;7.55;;;-1.60;61.00;;;;;;4707114;29;114869;-82
2022/12/19 08:25:13;;;;;;;17.05;7.05;;;-1.50;60.90;;;;;;4734333;29;115089;-82
2022/12/19 08:27:41;;;;;;;16.52;7.47;;;-1.50;61.20;;;;;;4732133;29;114677;-81
2022/12/19 08:30:10;;;;;;;12.27;5.72;;;-1.40;61.20;;;;;;4718202;29;114676;-81
2022/12/19 08:32:40;;;;;;;14.27;6.53;;;-1.40;60.90;;;;;;4733372;29;114513;-83
2022/12/19 08:35:08;;;;;;;19.08;7.55;;;-1.30;60.60;;;;;;4736371;29;115286;-83
2022/12/19 08:37:36;;;;;;;14.88;6.22;;;-1.20;60.80;;;;;;4732978;29;117995;-82
2022/12/19 08:40:05;;;;;;;15.27;6.68;;;-1.20;60.70;;;;;;4732552;29;114642;-82
2022/12/19 08:42:33;;;;;;;18.02;6.78;;;-1.10;60.60;;;;;;4731480;29;114652;-82
2022/12/19 08:45:00;;;;;;;16.17;6.85;;;-1.00;60.40;;;;;;4688854;29;117376;-82
2022/12/19 08:47:28;;;;;;;15.93;6.68;;;-1.00;59.90;;;;;;4732251;29;116578;-82
2022/12/19 08:49:59;;;;;;;13.52;6.07;;;-0.90;60.00;;;;;;4735664;29;114854;-82
2022/12/19 08:52:30;;;;;;;18.88;6.55;;;-0.90;59.20;;;;;;4716395;29;114600;-82
2022/12/19 08:54:59;;;;;;;16.63;7.03;;;-1.00;59.60;;;;;;4732066;29;116590;-83
2022/12/19 08:57:26;;;;;;;16.60;7.53;;;-0.90;59.40;;;;;;4731315;29;116143;-82
2022/12/19 08:59:53;;;;;;;18.67;7.40;;;-0.90;59.30;;;;;;4732952;29;114818;-82
2022/12/19 09:02:23;;;;;;;17.83;7.32;;;-0.80;59.70;;;;;;4733804;29;114742;-83
2022/12/19 09:04:50;;;;;;;18.27;7.45;;;-0.80;59.80;;;;;;4732846;29;115473;-82
2022/12/19 09:07:38;;;;;;;19.10;7.45;;;-0.60;59.80;;;;;;4734204;29;114844;-82
2022/12/19 09:10:06;;;;;;;16.10;7.10;;;-0.50;59.80;;;;;;4734936;29;116637;-82
2022/12/19 09:12:34;;;;;;;17.40;7.93;;;-0.40;59.80;;;;;;4727949;29;114547;-83
2022/12/19 09:15:01;;;;;;;17.10;7.95;;;-0.40;59.50;;;;;;4735624;29;115167;-85
2022/12/19 09:17:28;;;;;;;17.05;8.45;;;-0.40;59.30;;;;;;4736849;29;115151;-81
2022/12/19 09:19:57;;;;;;;21.20;9.10;;;-0.30;59.40;;;;;;4733223;29;114414;-82
2022/12/19 09:22:25;;;;;;;21.95;9.40;;;-0.30;59.10;;;;;;4738356;29;118453;-82
2022/12/19 09:24:55;;;;;;;18.10;8.80;;;-0.30;59.10;;;;;;4735807;29;115711;-82
2022/12/19 09:27:23;;;;;;;19.25;9.65;;;-0.20;59.10;;;;;;4737814;29;114735;-82
2022/12/19 09:29:50;;;;;;;21.15;9.60;;;-0.10;58.90;;;;;;4721744;29;115187;-82
2022/12/19 09:32:17;;;;;;;19.10;9.70;;;-0.10;59.00;;;;;;4739200;29;114692;-82
2022/12/19 09:34:44;;;;;;;23.77;10.60;;;-0.10;58.80;;;;;;4736612;29;115214;-82
2022/12/19 09:37:12;;;;;;;19.30;8.90;;;0.00;58.60;;;;;;4741731;29;114607;-81
2022/12/19 09:39:46;;;;;;;19.17;9.75;;;0.00;58.00;;;;;;4742199;29;114542;-82
2022/12/19 09:43:03;;;;;;;21.38;9.43;;;0.00;58.00;;;;;;4756294;29;114462;-82
2022/12/19 09:46:13;;;;;;;19.58;8.48;;;0.00;57.80;;;;;;4751273;29;115235;-83
2022/12/19 09:48:40;;;;;;;19.83;9.13;;;0.00;58.20;;;;;;4736181;29;114690;-81
2022/12/19 09:51:37;;;;;;;19.88;9.20;;;0.10;57.80;;;;;;4741374;29;114728;-82
2022/12/19 09:54:10;;;;;;;16.60;7.65;;;0.20;57.90;;;;;;4726529;29;114433;-82
2022/12/19 09:56:39;;;;;;;18.10;7.00;;;0.20;57.40;;;;;;4741560;29;115298;-82
2022/12/19 09:59:39;;;;;;;15.10;7.22;;;0.30;57.60;;;;;;4739439;29;114670;-82
2022/12/19 10:02:43;;;;;;;13.65;5.90;;;0.30;57.60;;;;;;4737076;29;114452;-82
2022/12/19 10:05:35;;;;;;;17.52;7.25;;;0.40;57.30;;;;;;4723655;29;114917;-82
2022/12/19 10:08:36;;;;;;;14.38;7.43;;;0.40;57.50;;;;;;4712910;29;118230;-81
2022/12/19 10:12:24;;;;;;;15.27;6.78;;;0.40;57.40;;;;;;4752016;29;114782;-81
2022/12/19 10:15:41;;;;;;;13.07;6.13;;;0.40;57.00;;;;;;4740926;29;114492;-81
2022/12/19 10:18:30;;;;;;;13.85;6.47;;;0.30;57.00;;;;;;4741663;29;114413;-82
2022/12/19 10:21:12;;;;;;;14.43;7.63;;;0.30;57.20;;;;;;4737855;29;115583;-82
2022/12/19 10:24:15;;;;;;;18.75;7.78;;;0.30;57.00;;;;;;4736224;29;114749;-82
2022/12/19 10:26:57;;;;;;;14.75;6.60;;;0.40;57.10;;;;;;4740162;29;116033;-82
2022/12/19 10:29:55;;;;;;;18.27;8.10;;;0.40;57.00;;;;;;4737186;29;116399;-81
2022/12/19 10:33:08;;;;;;;16.27;6.95;;;0.50;57.10;;;;;;4750012;29;115648;-81
2022/12/19 10:35:48;;;;;;;16.70;7.57;;;0.50;57.00;;;;;;4713938;29;116827;-82
2022/12/19 10:38:42;;;;;;;15.60;7.05;;;0.50;57.10;;;;;;4704447;29;115409;-81
2022/12/19 10:41:28;;;;;;;15.57;7.03;;;0.60;56.70;;;;;;4732363;29;114496;-81
2022/12/19 10:44:09;;;;;;;16.58;7.05;;;0.60;56.50;;;;;;4724456;29;117706;-81
2022/12/19 10:46:46;;;;;;;13.68;5.85;;;0.60;55.90;;;;;;4731445;29;115766;-82
2022/12/19 10:49:21;;;;;;;13.15;6.38;;;0.60;55.80;;;;;;4738170;29;114544;-81
2022/12/19 10:51:59;;;;;;;14.68;6.97;;;0.60;56.10;;;;;;4736335;29;114944;-80
2022/12/19 10:54:41;;;;;;;15.82;6.88;;;0.60;55.80;;;;;;4736499;29;115645;-80
2022/12/19 10:57:28;;;;;;;15.98;7.05;;;0.50;55.90;;;;;;4762688;29;115169;-81
2022/12/19 11:00:05;;;;;;;17.48;7.35;;;0.60;56.30;;;;;;4739371;29;114622;-80
2022/12/19 11:02:37;;;;;;;14.52;6.78;;;0.60;56.30;;;;;;4738858;29;115792;-80
2022/12/19 11:05:25;;;;;;;15.30;7.32;;;0.60;56.30;;;;;;4739323;29;115050;-80
2022/12/19 11:08:08;;;;;;;16.23;6.82;;;0.70;55.60;;;;;;4724599;29;114682;-81
2022/12/19 11:10:50;;;;;;;18.70;7.88;;;0.60;55.10;;;;;;4751084;29;114465;-81
2022/12/19 11:13:40;;;;;;;15.48;6.95;;;0.60;55.70;;;;;;4750141;29;114505;-81
2022/12/19 11:16:34;;;;;;;15.65;7.43;;;0.60;55.90;;;;;;4738350;29;114993;-81
2022/12/19 11:19:34;;;;;;;14.45;6.75;;;0.60;55.30;;;;;;4695854;29;1226516;-81
2022/12/19 11:22:29;;;;;;;16.73;7.45;;;0.50;55.70;;;;;;4740775;29;115145;-80
2022/12/19 11:25:22;;;;;;;14.80;7.18;;;0.50;54.30;;;;;;4749714;29;114700;-80
2022/12/19 11:28:35;;;;;;;12.60;5.65;;;0.50;55.20;;;;;;4738547;29;115738;-80
2022/12/19 11:31:23;;;;;;;11.90;5.93;;;0.50;55.10;;;;;;4726666;29;116738;-80
2022/12/19 11:34:22;;;;;;;16.45;7.07;;;0.50;55.20;;;;;;4751695;29;114693;-80
2022/12/19 11:37:00;;;;;;;14.05;6.25;;;0.50;55.20;;;;;;4752111;29;114559;-80
2022/12/19 11:39:47;;;;;;;14.07;6.65;;;0.50;55.70;;;;;;4734484;29;115181;-80
2022/12/19 11:42:57;;;;;;;15.52;6.85;;;0.60;55.50;;;;;;4722656;29;114712;-81
2022/12/19 11:46:01;;;;;;;15.98;7.13;;;0.60;55.30;;;;;;4713187;29;114663;-81
2022/12/19 11:48:38;;;;;;;7.88;4.55;;;0.70;55.40;;;;;;4738002;29;114602;-80
2022/12/19 11:51:30;;;;;;;16.45;7.15;;;0.60;54.90;;;;;;4738963;29;115231;-80
2022/12/19 11:54:12;;;;;;;15.95;6.65;;;0.60;55.30;;;;;;4723680;29;114751;-81
2022/12/19 11:56:39;;;;;;;11.65;5.68;;;0.70;55.40;;;;;;4736421;29;114619;-81
2022/12/19 11:59:33;;;;;;;13.80;6.22;;;0.70;55.30;;;;;;4735412;29;114510;-81
2022/12/19 12:02:29;;;;;;;12.07;6.40;;;0.80;55.20;;;;;;4703223;29;116657;-80
2022/12/19 12:04:59;;;;;;;14.55;6.43;;;0.80;54.80;;;;;;4732985;29;114674;-80
2022/12/19 12:07:33;;;;;;;18.05;7.82;;;0.70;54.40;;;;;;4736610;29;114764;-80
2022/12/19 12:10:21;;;;;;;15.07;6.40;;;0.70;54.80;;;;;;4728207;29;114702;-81
2022/12/19 12:13:25;;;;;;;12.10;6.13;;;0.70;54.70;;;;;;4740491;29;115271;-81
2022/12/19 12:16:15;;;;;;;14.53;7.10;;;0.70;54.50;;;;;;4722879;29;115955;-81
2022/12/19 12:19:40;;;;;;;16.75;7.15;;;0.70;54.30;;;;;;4711595;29;116429;-81
2022/12/19 12:23:05;;;;;;;;;;;0.60;54.10;;;;;;4735264;29;115010;-80
2022/12/19 12:26:13;;;;;;;15.15;6.60;;;0.60;53.80;;;;;;4739208;29;115043;-79
2022/12/19 12:29:30;;;;;;;15.93;6.60;;;0.60;54.70;;;;;;4725247;29;117031;-79
2022/12/19 12:32:35;;;;;;;12.02;6.13;;;0.70;55.20;;;;;;4749246;29;114328;-80
2022/12/19 12:35:38;;;;;;;52.92;25.33;;;0.80;55.20;;;;;;4753589;29;114596;-79
2022/12/19 12:39:09;;;;;;;86.75;38.72;;;0.90;55.50;;;;;;4737172;29;115237;-80
2022/12/19 12:42:02;;;;;;;81.25;34.95;;;0.90;55.70;;;;;;4696775;29;115369;-81
2022/12/19 12:44:40;;;;;;;78.30;35.03;;;0.80;55.80;;;;;;4682577;29;115959;-80
2022/12/19 12:47:19;;;;;;;79.13;38.45;;;0.80;56.20;;;;;;4709471;29;114701;-80
2022/12/19 12:49:54;;;;;;;93.35;40.38;;;0.80;56.40;;;;;;4752279;29;115234;-80
2022/12/19 12:52:39;;;;;;;80.18;38.17;;;0.70;56.40;;;;;;4735732;29;115946;-79
2022/12/19 12:55:28;;;;;;;;;;;0.80;56.60;;;;;;4752779;29;114744;-80
2022/12/19 12:57:57;;;;;;;30.77;12.48;;;0.70;56.60;;;;;;4739361;29;114576;-81
2022/12/19 13:00:30;;;;;;;27.67;13.02;;;0.60;56.60;;;;;;4752341;29;115379;-80
2022/12/19 13:03:17;;;;;;;14.02;6.30;;;0.60;56.30;;;;;;4721211;29;115906;-80
2022/12/19 13:05:53;;;;;;;13.93;6.57;;;0.60;55.60;;;;;;4737964;29;116137;-80
2022/12/19 13:08:46;;;;;;;14.70;6.53;;;0.70;55.90;;;;;;4738164;29;114651;-80
2022/12/19 13:12:58;;;;;;;12.88;6.18;;;0.70;55.30;;;;;;4734146;29;115133;-80
2022/12/19 13:14:05;;;;;;;13.80;5.82;;;0.80;55.80;;;;;;4737803;29;114980;-80
2022/12/19 13:16:44;;;;;;;14.82;5.75;;;0.90;55.70;;;;;;4724304;29;114552;-79
2022/12/19 13:19:29;;;;;;;13.65;6.13;;;0.90;54.80;;;;;;4735266;29;114576;-80
2022/12/19 13:22:19;;;;;;;10.82;5.65;;;0.90;54.70;;;;;;4720986;29;115898;-80
2022/12/19 13:24:54;;;;;;;17.25;7.40;;;0.90;54.50;;;;;;4736805;29;115009;-81
2022/12/19 13:27:22;;;;;;;15.20;7.10;;;0.80;53.10;;;;;;4735691;29;115644;-80